createdAt,value
2019-04-03T00:02:27.430Z,53.40
2019-04-03T00:04:58.942Z,53.40
2019-04-03T00:07:30.863Z,53.33
2019-04-03T00:10:02.409Z,53.66
2019-04-03T00:12:34.347Z,53.29
2019-04-03T00:15:06.935Z,53.29
2019-04-03T00:17:38.646Z,53.02
2019-04-03T00:20:10.564Z,53.02
2019-04-03T00:22:42.292Z,53.73
2019-04-03T00:25:13.969Z,53.80
2019-04-03T00:27:45.543Z,53.73
2019-04-03T00:30:17.389Z,53.54
2019-04-03T00:32:49.133Z,53.67
2019-04-03T00:35:23.151Z,53.67
2019-04-03T00:37:54.125Z,53.73
2019-04-03T00:40:25.950Z,54.33
2019-04-03T00:42:58.706Z,53.63
2019-04-03T00:45:30.557Z,53.63
2019-04-03T00:48:02.598Z,54.12
2019-04-03T00:50:34.296Z,54.12
2019-04-03T00:53:05.847Z,54.93
2019-04-03T00:55:37.732Z,54.93
2019-04-03T00:58:37.531Z,54.71
2019-04-03T01:01:11.598Z,53.18
2019-04-03T01:03:44.112Z,53.18
2019-04-03T01:06:15.911Z,53.77
2019-04-03T01:08:47.546Z,54.13
2019-04-03T01:11:19.638Z,54.13
2019-04-03T01:13:52.274Z,53.55
2019-04-03T01:16:24.184Z,52.91
2019-04-03T01:18:55.934Z,52.91
2019-04-03T01:21:28.126Z,52.37
2019-04-03T01:23:59.652Z,52.37
2019-04-03T01:26:31.619Z,51.74
2019-04-03T01:29:03.621Z,51.74
2019-04-03T01:31:35.267Z,50.96
2019-04-03T01:34:06.814Z,50.96
2019-04-03T01:36:38.618Z,49.65
2019-04-03T01:39:10.275Z,49.89
2019-04-03T01:41:41.908Z,49.21
2019-04-03T01:44:14.053Z,49.21
2019-04-03T01:46:45.872Z,48.05
2019-04-03T01:49:17.481Z,47.60
2019-04-03T01:51:49.087Z,48.29
2019-04-03T01:54:20.944Z,47.50
2019-04-03T01:56:52.364Z,47.50
2019-04-03T01:59:24.362Z,45.83
2019-04-03T02:01:57.384Z,45.60
2019-04-03T02:04:29.172Z,46.14
2019-04-03T02:07:00.945Z,43.96
2019-04-03T02:09:32.593Z,43.96
2019-04-03T02:12:04.744Z,44.36
2019-04-03T02:14:36.709Z,44.08
2019-04-03T02:17:08.421Z,44.08
2019-04-03T02:19:40.451Z,43.39
2019-04-03T02:22:11.972Z,42.79
2019-04-03T02:24:43.624Z,42.25
2019-04-03T02:27:15.287Z,42.51
2019-04-03T02:29:47.105Z,42.22
2019-04-03T02:32:18.879Z,41.51
2019-04-03T02:34:50.712Z,41.67
2019-04-03T02:37:22.243Z,41.39
2019-04-03T02:39:54.082Z,41.39
2019-04-03T02:42:25.940Z,40.82
2019-04-03T02:44:58.355Z,40.82
2019-04-03T02:47:32.934Z,40.73
2019-04-03T02:50:03.775Z,40.15
2019-04-03T02:52:35.568Z,40.56
2019-04-03T02:55:08.429Z,39.46
2019-04-03T02:57:40.966Z,39.46
2019-04-03T03:00:12.699Z,39.10
2019-04-03T03:02:45.751Z,39.23
2019-04-03T03:05:18.056Z,39.38
2019-04-03T03:07:49.825Z,38.33
2019-04-03T03:10:21.601Z,38.94
2019-04-03T03:12:53.289Z,38.28
2019-04-03T03:15:25.775Z,37.67
2019-04-03T03:17:58.292Z,37.13
2019-04-03T03:20:31.404Z,36.28
2019-04-03T03:23:03.705Z,38.36
2019-04-03T03:25:35.900Z,38.64
2019-04-03T03:28:08.963Z,38.70
2019-04-03T03:30:46.640Z,37.35
2019-04-03T03:33:33.220Z,35.67
2019-04-03T03:35:51.757Z,36.70
2019-04-03T03:38:27.256Z,37.27
2019-04-03T03:40:59.289Z,37.27
2019-04-03T03:43:32.111Z,36.37
2019-04-03T03:46:04.298Z,36.91
2019-04-03T03:48:37.094Z,34.06
2019-04-03T03:51:08.704Z,34.81
2019-04-03T03:53:44.076Z,34.45
2019-04-03T03:56:14.649Z,34.09
2019-04-03T03:58:46.868Z,33.98
2019-04-03T04:01:19.152Z,33.98
2019-04-03T04:03:52.351Z,31.74
2019-04-03T04:06:28.231Z,32.38
2019-04-03T04:09:00.690Z,32.16
2019-04-03T04:11:34.209Z,31.64
2019-04-03T04:14:06.192Z,31.54
2019-04-03T04:16:38.484Z,31.54
2019-04-03T04:19:10.244Z,32.04
2019-04-03T04:21:45.033Z,31.81
2019-04-03T04:24:18.447Z,31.81
2019-04-03T04:26:50.651Z,31.51
2019-04-03T04:29:22.482Z,31.01
2019-04-03T04:32:10.249Z,31.01
2019-04-03T04:34:42.653Z,31.78
2019-04-03T04:37:14.252Z,29.90
2019-04-03T04:39:46.398Z,29.90
2019-04-03T04:42:18.318Z,29.43
2019-04-03T04:44:50.284Z,29.23
2019-04-03T04:47:23.477Z,29.16
2019-04-03T04:49:55.418Z,30.55
2019-04-03T04:52:27.624Z,30.55
2019-04-03T04:55:02.001Z,29.47
2019-04-03T04:57:34.538Z,28.85
2019-04-03T05:00:07.178Z,29.18
2019-04-03T05:02:39.071Z,29.18
